Time;durP1;ratioP1;P1;durP2;ratioP2;P2;SDS_P1;SDS_P2;PMS_P1;PMS_P2;Temp;Humidity;BMP_temperature;BMP_pressure;BME280_temperature;BME280_humidity;BME280_pressure;Samples;Min_cycle;Max_cycle;Signal;HPM_P1;HPM_P2
2023/01/30 00:02:10;;;;;;;;;;;;;;;8.21;49.09;101164.03;6240232;23;19913;-87
2023/01/30 00:04:35;;;;;;;;;;;;;;;8.27;49.12;101172.00;6240505;23;20321;-87
2023/01/30 00:07:00;;;;;;;;;;;;;;;8.29;48.98;101174.44;6238763;23;19907;-87
2023/01/30 00:09:26;;;;;;;;;;;;;;;8.17;49.10;101161.81;6239231;23;19953;-87
2023/01/30 00:11:51;;;;;;;;;;;;;;;8.15;49.40;101155.91;6239961;23;19923;-87
2023/01/30 00:14:17;;;;;;;;;;;;;;;8.21;49.52;101145.34;6240173;23;20151;-87
2023/01/30 00:16:42;;;;;;;;;;;;;;;8.29;49.52;101147.75;6242645;23;19914;-88
2023/01/30 00:19:07;;;;;;;;;;;;;;;8.25;49.58;101136.69;6243135;23;19946;-87
2023/01/30 00:21:33;;;;;;;;;;;;;;;8.28;49.37;101125.56;6242642;23;20236;-87
2023/01/30 00:23:59;;;;;;;;;;;;;;;8.34;49.14;101099.84;6243323;23;19930;-88
2023/01/30 00:26:25;;;;;;;;;;;;;;;8.32;49.23;101091.22;6243295;23;20007;-87
2023/01/30 00:28:50;;;;;;;;;;;;;;;8.34;48.94;101083.84;6243989;23;19912;-87
2023/01/30 00:31:15;;;;;;;;;;;;;;;8.29;49.33;101068.47;6216505;23;19915;-87
2023/01/30 00:33:41;;;;;;;;;;;;;;;8.26;49.45;101046.72;6242162;23;19907;-87
2023/01/30 00:36:06;;;;;;;;;;;;;;;8.30;49.22;101021.22;6243345;23;19947;-87
2023/01/30 00:38:32;;;;;;;;;;;;;;;8.31;49.11;101009.50;6242714;23;19961;-87
2023/01/30 00:40:57;;;;;;;;;;;;;;;8.25;48.88;100989.03;6243655;23;19914;-87
2023/01/30 00:49:14;;;;;;;;;;;;;;;8.22;49.16;100979.63;6242786;23;19961;-88
2023/01/30 00:51:39;;;;;;;;;;;;;;;8.23;48.99;100985.78;6243151;23;19916;-87
2023/01/30 00:54:05;;;;;;;;;;;;;;;8.28;48.96;100972.59;6243410;23;19954;-88
2023/01/30 00:56:30;;;;;;;;;;;;;;;8.34;49.24;100977.06;6242778;23;19931;-87
2023/01/30 00:58:55;;;;;;;;;;;;;;;8.33;48.63;100957.53;6216760;23;19923;-87
2023/01/30 01:01:21;;;;;;;;;;;;;;;8.29;49.10;100967.03;6217284;23;19908;-87
2023/01/30 01:03:46;;;;;;;;;;;;;;;8.24;49.06;100940.19;6243445;23;19916;-87
2023/01/30 01:06:11;;;;;;;;;;;;;;;8.23;48.82;100906.53;6242357;23;20320;-86
2023/01/30 01:08:37;;;;;;;;;;;;;;;8.28;48.81;100929.88;6243024;23;19982;-87
2023/01/30 01:11:02;;;;;;;;;;;;;;;8.26;49.02;100915.94;6244033;23;19911;-87
2023/01/30 01:13:28;;;;;;;;;;;;;;;8.26;49.28;100918.59;6243548;23;19989;-87
2023/01/30 01:15:53;;;;;;;;;;;;;;;8.25;48.78;100911.63;6244209;23;19988;-87
2023/01/30 01:18:19;;;;;;;;;;;;;;;8.28;48.98;100893.31;6242777;23;20467;-87
2023/01/30 01:20:44;;;;;;;;;;;;;;;8.26;48.81;100865.22;6244244;23;19907;-88
2023/01/30 01:23:10;;;;;;;;;;;;;;;8.26;49.06;100868.72;6245052;23;19915;-88
2023/01/30 01:25:35;;;;;;;;;;;;;;;8.27;48.72;100848.19;6216490;23;19911;-87
2023/01/30 01:28:01;;;;;;;;;;;;;;;8.16;49.18;100871.13;6242047;23;20346;-87
2023/01/30 01:30:26;;;;;;;;;;;;;;;8.14;49.04;100858.00;6213804;23;20381;-87
2023/01/30 01:32:52;;;;;;;;;;;;;;;8.17;48.89;100860.22;6240845;23;19908;-87
2023/01/30 01:35:18;;;;;;;;;;;;;;;8.16;48.90;100857.78;6240494;23;20002;-87
2023/01/30 01:37:44;;;;;;;;;;;;;;;8.16;48.99;100853.25;6240837;23;19919;-87
2023/01/30 01:42:59;;;;;;;;;;;;;;;8.19;48.76;100851.97;6241325;23;19950;-87
2023/01/30 02:56:12;;;;;;;;;;;;;;;8.23;49.71;100740.22;6204353;22;19923;-86
2023/01/30 02:58:40;;;;;;;;;;;;;;;8.30;49.53;100730.25;6211274;23;19919;-86
2023/01/30 03:01:09;;;;;;;;;;;;;;;8.26;49.25;100735.25;6212239;23;19914;-85
2023/01/30 03:03:34;;;;;;;;;;;;;;;8.28;49.61;100721.69;6212512;23;20284;-86
2023/01/30 03:06:08;;;;;;;;;;;;;;;8.30;49.66;100722.25;6211550;23;19915;-86
2023/01/30 03:08:40;;;;;;;;;;;;;;;8.27;49.79;100720.06;6211945;23;19916;-85
2023/01/30 03:11:07;;;;;;;;;;;;;;;8.34;49.37;100715.44;6213000;23;19934;-86
2023/01/30 03:13:44;;;;;;;;;;;;;;;8.39;49.40;100712.84;6212348;23;19932;-85
2023/01/30 03:16:36;;;;;;;;;;;;;;;8.43;49.56;100692.66;6212029;23;19908;-86
2023/01/30 03:19:03;;;;;;;;;;;;;;;8.37;49.56;100683.72;6205808;23;20342;-86
2023/01/30 03:21:28;;;;;;;;;;;;;;;8.41;49.12;100663.50;6185251;23;20172;-86
2023/01/30 03:23:54;;;;;;;;;;;;;;;8.38;49.36;100665.84;6211897;23;20250;-85
2023/01/30 03:26:22;;;;;;;;;;;;;;;8.34;49.20;100659.38;6211659;23;19916;-86
2023/01/30 03:28:48;;;;;;;;;;;;;;;8.25;49.48;100642.84;6211683;23;19939;-87
2023/01/30 03:31:14;;;;;;;;;;;;;;;8.23;49.88;100625.47;6184442;23;19916;-85
2023/01/30 03:33:39;;;;;;;;;;;;;;;8.21;49.52;100619.53;6210139;23;20221;-85
2023/01/30 03:36:05;;;;;;;;;;;;;;;8.19;50.00;100607.25;6210888;23;19936;-86
2023/01/30 03:38:30;;;;;;;;;;;;;;;8.27;49.99;100623.97;6211893;23;20381;-85
2023/01/30 03:40:56;;;;;;;;;;;;;;;8.23;49.82;100620.13;6211038;23;19923;-85
2023/01/30 03:43:21;;;;;;;;;;;;;;;8.25;50.09;100616.16;6211859;23;19950;-86
2023/01/30 03:45:46;;;;;;;;;;;;;;;8.25;50.08;100599.34;6211506;23;19978;-85
2023/01/30 03:48:12;;;;;;;;;;;;;;;8.22;50.15;100610.50;6184585;23;19934;-85
2023/01/30 03:50:37;;;;;;;;;;;;;;;8.25;50.19;100586.00;6184060;23;19912;-85
2023/01/30 03:53:03;;;;;;;;;;;;;;;8.21;49.99;100590.19;6211431;23;20356;-85
2023/01/30 03:55:28;;;;;;;;;;;;;;;8.12;50.65;100593.25;6211205;23;19916;-86
2023/01/30 03:57:54;;;;;;;;;;;;;;;8.12;50.75;100595.91;6211779;23;19918;-86
2023/01/30 04:00:19;;;;;;;;;;;;;;;8.17;50.74;100592.53;6211337;23;19998;-86
2023/01/30 04:02:45;;;;;;;;;;;;;;;8.11;50.76;100567.59;6211943;23;19931;-85
2023/01/30 04:05:10;;;;;;;;;;;;;;;8.15;50.37;100567.94;6211837;23;20320;-85
2023/01/30 04:07:39;;;;;;;;;;;;;;;8.18;50.29;100562.13;6211428;23;19995;-86
2023/01/30 04:10:04;;;;;;;;;;;;;;;8.16;50.56;100562.34;6210694;23;19915;-85
2023/01/30 04:12:30;;;;;;;;;;;;;;;8.14;50.77;100561.78;6211339;23;19912;-86
2023/01/30 04:14:55;;;;;;;;;;;;;;;8.10;50.96;100552.63;6212040;23;19908;-86
2023/01/30 04:17:21;;;;;;;;;;;;;;;8.09;50.64;100553.69;6212549;23;19912;-85
2023/01/30 04:19:46;;;;;;;;;;;;;;;8.13;50.70;100560.16;6213148;23;20347;-86
2023/01/30 04:22:11;;;;;;;;;;;;;;;8.07;50.77;100539.75;6213164;23;19912;-86
2023/01/30 04:24:37;;;;;;;;;;;;;;;8.06;51.25;100524.78;6218611;23;19919;-82
2023/01/30 04:27:02;;;;;;;;;;;;;;;7.99;51.22;100521.44;6227389;23;19908;-82
2023/01/30 04:29:28;;;;;;;;;;;;;;;8.04;51.20;100518.88;6227750;23;19966;-82
2023/01/30 04:31:53;;;;;;;;;;;;;;;8.07;51.23;100506.91;6227964;23;19916;-83
2023/01/30 04:34:18;;;;;;;;;;;;;;;8.04;51.81;100502.06;6228834;23;20015;-83
2023/01/30 04:36:44;;;;;;;;;;;;;;;8.02;51.34;100490.81;6224401;23;20295;-83
2023/01/30 04:39:09;;;;;;;;;;;;;;;8.05;51.39;100488.47;6226629;23;20232;-84
2023/01/30 04:41:34;;;;;;;;;;;;;;;8.03;51.65;100466.56;6220786;23;19915;-83
2023/01/30 04:44:00;;;;;;;;;;;;;;;7.97;51.69;100464.84;6229218;23;19951;-83
2023/01/30 04:46:25;;;;;;;;;;;;;;;7.99;51.85;100475.28;6231612;23;19912;-83
2023/01/30 04:48:50;;;;;;;;;;;;;;;7.97;51.93;100472.84;6202242;23;19912;-83
2023/01/30 04:51:16;;;;;;;;;;;;;;;7.96;51.98;100467.75;6230915;23;19982;-83
2023/01/30 04:53:41;;;;;;;;;;;;;;;8.00;52.21;100464.38;6224245;23;19916;-83
2023/01/30 04:56:06;;;;;;;;;;;;;;;7.96;52.52;100457.91;6227403;23;20343;-83
2023/01/30 04:58:32;;;;;;;;;;;;;;;7.96;52.46;100457.09;6221587;23;19975;-83
2023/01/30 05:01:13;;;;;;;;;;;;;;;7.96;52.17;100459.75;6228312;23;19915;-83
2023/01/30 05:03:38;;;;;;;;;;;;;;;7.92;52.32;100456.75;6229740;23;19907;-83
2023/01/30 05:06:04;;;;;;;;;;;;;;;7.94;52.35;100459.19;6228092;23;20231;-83
2023/01/30 05:08:29;;;;;;;;;;;;;;;7.96;52.39;100451.75;6225581;23;19993;-83
2023/01/30 05:10:56;;;;;;;;;;;;;;;7.92;52.42;100443.44;6221565;23;19912;-84
2023/01/30 05:13:21;;;;;;;;;;;;;;;7.92;52.57;100440.75;6208104;23;19920;-83
2023/01/30 05:15:47;;;;;;;;;;;;;;;7.98;52.27;100430.97;6227511;23;20239;-83
2023/01/30 05:18:12;;;;;;;;;;;;;;;7.95;52.40;100434.13;6229763;23;19916;-84
2023/01/30 05:20:37;;;;;;;;;;;;;;;7.92;52.66;100418.59;6197774;23;20374;-84
2023/01/30 05:23:03;;;;;;;;;;;;;;;7.98;52.69;100415.78;6225413;23;19918;-84
2023/01/30 05:25:28;;;;;;;;;;;;;;;8.02;52.59;100413.44;6223330;23;19912;-84
2023/01/30 05:27:55;;;;;;;;;;;;;;;8.01;52.76;100404.63;6214300;23;19986;-84
2023/01/30 05:30:21;;;;;;;;;;;;;;;7.95;52.50;100397.59;6227692;23;19908;-83
2023/01/30 05:32:46;;;;;;;;;;;;;;;8.00;52.64;100405.69;6226714;23;19922;-83
2023/01/30 05:35:12;;;;;;;;;;;;;;;8.04;52.81;100404.16;6220512;23;19962;-84
2023/01/30 05:37:37;;;;;;;;;;;;;;;8.02;52.94;100403.56;6198150;23;19931;-83
2023/01/30 05:40:03;;;;;;;;;;;;;;;8.04;52.80;100400.66;6229836;23;19912;-83
2023/01/30 05:42:28;;;;;;;;;;;;;;;8.10;52.86;100399.72;6224002;23;19940;-83
2023/01/30 05:44:54;;;;;;;;;;;;;;;8.17;52.54;100403.84;6218226;23;19952;-83
2023/01/30 05:47:19;;;;;;;;;;;;;;;8.14;52.61;100395.53;6220307;23;19912;-84
2023/01/30 05:49:44;;;;;;;;;;;;;;;8.15;52.79;100402.47;6222193;23;19939;-84
2023/01/30 05:52:10;;;;;;;;;;;;;;;8.14;52.57;100396.34;6228994;23;19978;-84
2023/01/30 05:54:35;;;;;;;;;;;;;;;8.08;53.13;100397.31;6222381;23;19908;-84
2023/01/30 05:57:00;;;;;;;;;;;;;;;8.15;52.96;100397.94;6219292;23;19911;-85
2023/01/30 05:59:26;;;;;;;;;;;;;;;8.17;52.90;100385.16;6220050;23;19927;-84
2023/01/30 06:01:51;;;;;;;;;;;;;;;8.24;52.75;100376.19;6217245;23;19912;-84
2023/01/30 06:04:17;;;;;;;;;;;;;;;8.21;53.02;100376.69;6218143;23;20107;-84
2023/01/30 06:06:42;;;;;;;;;;;;;;;8.23;52.99;100378.06;6191418;23;19908;-85
2023/01/30 06:09:11;;;;;;;;;;;;;;;8.22;53.30;100367.63;6180439;23;20303;-85
2023/01/30 06:11:37;;;;;;;;;;;;;;;8.33;53.01;100364.09;6206661;23;19950;-85
2023/01/30 06:14:02;;;;;;;;;;;;;;;8.40;52.53;100360.22;6216943;23;19908;-84
2023/01/30 06:16:27;;;;;;;;;;;;;;;8.34;52.86;100347.03;6226525;23;20386;-84
2023/01/30 06:18:53;;;;;;;;;;;;;;;8.43;53.04;100367.75;6228045;23;19930;-84
2023/01/30 06:21:18;;;;;;;;;;;;;;;8.44;52.64;100348.03;6219472;23;19915;-84
2023/01/30 06:23:43;;;;;;;;;;;;;;;8.39;52.88;100344.44;6216867;23;19908;-84
2023/01/30 06:26:09;;;;;;;;;;;;;;;8.46;52.62;100345.09;6225592;23;20465;-84
2023/01/30 06:28:35;;;;;;;;;;;;;;;8.48;52.67;100353.69;6225436;23;20174;-83
2023/01/30 06:31:00;;;;;;;;;;;;;;;8.48;52.96;100356.34;6219653;23;20251;-84
2023/01/30 06:33:25;;;;;;;;;;;;;;;8.54;52.69;100363.38;6219543;23;19922;-84
2023/01/30 06:35:51;;;;;;;;;;;;;;;8.55;52.69;100369.53;6219543;23;19931;-84
2023/01/30 06:38:17;;;;;;;;;;;;;;;8.55;53.10;100365.00;6220886;23;19935;-84
2023/01/30 06:40:46;;;;;;;;;;;;;;;8.55;53.20;100367.66;6221104;23;20007;-84
2023/01/30 06:43:12;;;;;;;;;;;;;;;8.59;53.21;100371.47;6220833;23;20083;-84
2023/01/30 06:45:38;;;;;;;;;;;;;;;8.61;53.20;100366.69;6217171;23;19908;-84
2023/01/30 06:48:03;;;;;;;;;;;;;;;8.65;53.19;100357.16;6221574;23;19911;-84
2023/01/30 06:50:29;;;;;;;;;;;;;;;8.71;52.95;100361.50;6231583;23;19923;-84
2023/01/30 06:52:55;;;;;;;;;;;;;;;8.72;52.81;100359.63;6222651;23;19912;-84
2023/01/30 06:55:22;;;;;;;;;;;;;;;8.71;53.28;100356.16;6223564;23;19942;-84
2023/01/30 06:57:47;;;;;;;;;;;;;;;8.67;53.40;100357.72;6215871;23;19912;-84
2023/01/30 07:00:17;;;;;;;;;;;;;;;8.75;52.91;100359.13;6217404;23;19912;-84
2023/01/30 07:02:45;;;;;;;;;;;;;;;8.74;53.36;100355.66;6223847;23;19953;-84
2023/01/30 07:05:11;;;;;;;;;;;;;;;8.75;53.13;100349.25;6225309;23;19939;-84
2023/01/30 07:07:37;;;;;;;;;;;;;;;8.76;53.26;100350.88;6216905;23;19908;-84
2023/01/30 07:10:04;;;;;;;;;;;;;;;8.79;53.24;100347.72;6210709;23;20342;-85
2023/01/30 07:12:32;;;;;;;;;;;;;;;8.82;53.37;100343.78;6219307;23;19965;-85
2023/01/30 07:14:58;;;;;;;;;;;;;;;8.87;53.47;100337.69;6224704;23;19908;-83
2023/01/30 07:17:23;;;;;;;;;;;;;;;8.83;53.44;100336.56;6216060;23;19919;-84
2023/01/30 07:19:49;;;;;;;;;;;;;;;8.85;53.58;100337.13;6233645;23;19915;-84
2023/01/30 07:22:14;;;;;;;;;;;;;;;8.97;53.58;100340.47;6225604;23;19908;-84
2023/01/30 07:24:41;;;;;;;;;;;;;;;8.94;53.74;100335.63;6219999;23;19958;-85
2023/01/30 07:27:08;;;;;;;;;;;;;;;9.01;53.97;100341.63;6211896;23;19912;-84
2023/01/30 07:29:33;;;;;;;;;;;;;;;9.06;54.05;100334.47;6202398;23;19908;-84
2023/01/30 07:31:59;;;;;;;;;;;;;;;9.09;53.66;100333.97;6233354;23;19923;-84
2023/01/30 07:34:24;;;;;;;;;;;;;;;9.12;53.81;100321.97;6229045;23;19943;-84
2023/01/30 07:36:50;;;;;;;;;;;;;;;9.18;54.04;100334.34;6226467;23;20038;-84
2023/01/30 07:39:15;;;;;;;;;;;;;;;9.21;53.73;100315.13;6220908;23;19915;-84
2023/01/30 07:41:40;;;;;;;;;;;;;;;9.27;54.02;100319.47;6221733;23;20229;-84
2023/01/30 07:44:06;;;;;;;;;;;;;;;9.34;53.68;100343.38;6224949;23;19911;-84
2023/01/30 07:46:33;;;;;;;;;;;;;;;9.37;53.99;100341.00;6229522;23;19911;-84
2023/01/30 07:49:00;;;;;;;;;;;;;;;9.41;54.08;100341.31;6227678;23;19923;-84
2023/01/30 07:51:25;;;;;;;;;;;;;;;9.55;53.72;100347.06;6222469;23;19950;-84
2023/01/30 07:53:50;;;;;;;;;;;;;;;9.55;53.89;100363.13;6222785;23;19960;-84
2023/01/30 07:56:18;;;;;;;;;;;;;;;9.59;53.66;100349.00;6216851;23;19927;-85
2023/01/30 07:58:44;;;;;;;;;;;;;;;9.64;53.79;100350.91;6218063;23;19912;-84
2023/01/30 08:01:09;;;;;;;;;;;;;;;9.68;53.98;100358.19;6227292;23;20112;-84
2023/01/30 08:03:35;;;;;;;;;;;;;;;9.72;53.91;100355.03;6217011;23;19950;-85
2023/01/30 08:06:00;;;;;;;;;;;;;;;9.77;53.74;100358.53;6228307;23;19896;-85
2023/01/30 08:08:25;;;;;;;;;;;;;;;9.81;54.22;100345.47;6233032;23;19908;-84
2023/01/30 08:10:51;;;;;;;;;;;;;;;9.91;53.87;100351.75;6233966;23;19935;-83
2023/01/30 08:13:16;;;;;;;;;;;;;;;9.93;53.83;100344.25;6229972;23;19895;-84
2023/01/30 08:15:42;;;;;;;;;;;;;;;10.03;53.78;100348.06;6233511;23;20181;-84
2023/01/30 08:18:07;;;;;;;;;;;;;;;10.06;53.71;100343.03;6227108;23;19908;-85
2023/01/30 08:20:32;;;;;;;;;;;;;;;10.07;53.89;100335.81;6235772;23;19907;-85
2023/01/30 08:22:59;;;;;;;;;;;;;;;10.16;53.70;100348.47;6211701;23;19912;-85
2023/01/30 08:25:24;;;;;;;;;;;;;;;10.24;53.73;100360.63;6209895;23;20104;-84
2023/01/30 08:27:50;;;;;;;;;;;;;;;10.31;53.76;100344.34;6208638;23;19912;-85
2023/01/30 08:30:16;;;;;;;;;;;;;;;10.39;53.55;100352.69;6209489;23;19912;-84
2023/01/30 08:32:41;;;;;;;;;;;;;;;10.43;53.70;100340.44;6210155;23;19926;-85
2023/01/30 08:35:07;;;;;;;;;;;;;;;10.49;53.43;100342.06;6210889;23;19943;-85
2023/01/30 08:37:33;;;;;;;;;;;;;;;10.51;53.54;100344.50;6216425;23;19926;-85
2023/01/30 08:40:01;;;;;;;;;;;;;;;10.54;53.40;100350.13;6219090;23;19908;-85
2023/01/30 08:42:27;;;;;;;;;;;;;;;10.59;53.46;100347.53;6229704;23;19987;-86
2023/01/30 08:44:52;;;;;;;;;;;;;;;10.66;53.37;100341.91;6211444;23;20023;-85
2023/01/30 08:47:17;;;;;;;;;;;;;;;10.73;53.42;100355.09;6211319;23;19908;-85
2023/01/30 08:49:43;;;;;;;;;;;;;;;10.74;53.44;100337.94;6211996;23;19914;-85
2023/01/30 08:52:09;;;;;;;;;;;;;;;10.79;53.40;100340.66;6212099;23;19994;-85
2023/01/30 08:54:34;;;;;;;;;;;;;;;10.81;53.18;100336.66;6226153;23;19911;-84
2023/01/30 08:56:59;;;;;;;;;;;;;;;10.86;53.21;100335.88;6212561;23;19920;-85
2023/01/30 08:59:25;;;;;;;;;;;;;;;10.88;53.04;100334.53;6212742;23;19908;-85
2023/01/30 09:01:55;;;;;;;;;;;;;;;10.92;53.10;100334.03;6226622;23;19922;-84
2023/01/30 09:04:23;;;;;;;;;;;;;;;10.95;53.11;100328.13;6236041;23;19916;-84
2023/01/30 09:06:49;;;;;;;;;;;;;;;11.00;53.32;100330.88;6236452;23;19926;-84
2023/01/30 09:09:14;;;;;;;;;;;;;;;11.12;52.96;100345.66;6230042;23;19911;-85
2023/01/30 09:11:39;;;;;;;;;;;;;;;11.07;52.84;100334.09;6184283;23;19939;-86
2023/01/30 09:14:05;;;;;;;;;;;;;;;11.09;53.20;100337.31;6211880;23;20235;-85
2023/01/30 09:16:30;;;;;;;;;;;;;;;11.15;52.90;100333.63;6211098;23;19908;-86
2023/01/30 09:18:56;;;;;;;;;;;;;;;11.19;52.82;100332.81;6211221;23;19911;-85
2023/01/30 09:21:21;;;;;;;;;;;;;;;11.29;52.94;100323.19;6212039;23;19919;-85
2023/01/30 09:23:46;;;;;;;;;;;;;;;11.38;52.59;100337.72;6211301;23;19908;-85
2023/01/30 09:26:12;;;;;;;;;;;;;;;11.36;52.36;100337.19;6210912;23;19912;-85
2023/01/30 09:28:37;;;;;;;;;;;;;;;11.34;52.42;100331.28;6210565;23;19919;-85
2023/01/30 09:31:02;;;;;;;;;;;;;;;11.29;52.35;100328.56;6184705;23;20403;-86
2023/01/30 09:33:28;;;;;;;;;;;;;;;11.22;52.30;100322.66;6211446;23;19935;-85
2023/01/30 09:35:54;;;;;;;;;;;;;;;11.29;52.22;100325.88;6210950;23;20002;-87
2023/01/30 09:38:20;;;;;;;;;;;;;;;11.34;52.42;100329.41;6211258;23;19939;-86
2023/01/30 09:41:03;;;;;;;;;;;;;;;11.44;52.46;100334.78;6210411;23;19915;-86
2023/01/30 09:43:28;;;;;;;;;;;;;;;11.51;52.49;100323.81;6210816;23;19908;-85
2023/01/30 09:45:54;;;;;;;;;;;;;;;11.53;52.15;100324.38;6183002;23;19947;-86
2023/01/30 09:48:19;;;;;;;;;;;;;;;11.57;52.29;100325.44;6210079;23;20243;-86
2023/01/30 09:50:56;;;;;;;;;;;;;;;11.64;51.99;100317.13;6211083;23;20312;-86
2023/01/30 09:53:40;;;;;;;;;;;;;;;11.66;51.95;100318.47;6210839;23;19918;-86
2023/01/30 09:56:06;;;;;;;;;;;;;;;11.76;51.97;100329.22;6209180;23;19911;-86
2023/01/30 09:58:43;;;;;;;;;;;;;;;11.89;51.79;100317.22;6208834;23;19912;-85
2023/01/30 10:01:14;;;;;;;;;;;;;;;12.09;51.62;100308.38;6211803;23;19908;-85
2023/01/30 10:03:48;;;;;;;;;;;;;;;12.18;51.19;100308.63;6209098;23;19950;-85
2023/01/30 10:06:13;;;;;;;;;;;;;;;12.16;51.10;100314.25;6211461;23;19907;-85
2023/01/30 10:08:39;;;;;;;;;;;;;;;12.24;50.82;100311.06;6207077;23;20243;-86
2023/01/30 10:11:26;;;;;;;;;;;;;;;12.29;50.71;100300.28;6213178;23;19912;-85
2023/01/30 10:14:06;;;;;;;;;;;;;;;12.30;50.10;100301.91;6212603;23;19911;-85
2023/01/30 10:16:52;;;;;;;;;;;;;;;12.28;50.35;100297.88;6213235;23;19940;-86
2023/01/30 10:19:18;;;;;;;;;;;;;;;12.26;50.18;100289.28;6213205;23;19978;-84
2023/01/30 10:21:46;;;;;;;;;;;;;;;12.24;49.83;100294.94;6212868;23;19946;-86
2023/01/30 10:24:24;;;;;;;;;;;;;;;12.17;50.26;100280.97;6210480;23;20351;-84
2023/01/30 10:26:49;;;;;;;;;;;;;;;12.24;49.86;100291.44;6212962;23;19920;-86
2023/01/30 10:29:30;;;;;;;;;;;;;;;12.29;50.37;100276.13;6186341;23;20394;-85
2023/01/30 10:32:04;;;;;;;;;;;;;;;12.35;50.03;100288.47;6213489;23;19970;-86
2023/01/30 10:34:37;;;;;;;;;;;;;;;12.38;49.85;100287.91;6211770;23;19908;-84
2023/01/30 10:37:12;;;;;;;;;;;;;;;12.39;49.91;100294.13;6213354;23;19958;-85
2023/01/30 10:39:51;;;;;;;;;;;;;;;12.43;50.16;100295.19;6213505;23;20484;-85
2023/01/30 10:42:24;;;;;;;;;;;;;;;12.51;49.91;100294.63;6213738;23;19917;-85
2023/01/30 10:44:51;;;;;;;;;;;;;;;12.65;49.67;100286.81;6212391;23;19919;-86
2023/01/30 10:47:35;;;;;;;;;;;;;;;12.65;49.27;100292.97;6213130;23;19979;-85
2023/01/30 10:50:13;;;;;;;;;;;;;;;12.64;49.32;100290.56;6212720;23;19912;-85
2023/01/30 10:52:42;;;;;;;;;;;;;;;12.72;49.24;100290.00;6212920;23;19912;-85
2023/01/30 10:55:19;;;;;;;;;;;;;;;12.74;49.19;100282.47;6212260;23;19908;-85
2023/01/30 10:57:57;;;;;;;;;;;;;;;12.73;49.36;100275.47;6185591;23;19908;-86
2023/01/30 11:00:27;;;;;;;;;;;;;;;12.75;48.66;100286.78;6212791;23;19915;-85
2023/01/30 11:02:52;;;;;;;;;;;;;;;12.75;48.97;100275.19;6212572;23;19915;-84
2023/01/30 11:05:21;;;;;;;;;;;;;;;12.78;49.06;100272.78;6212020;23;19907;-86
2023/01/30 11:07:47;;;;;;;;;;;;;;;12.93;48.21;100270.06;6212735;23;19986;-85
2023/01/30 11:10:17;;;;;;;;;;;;;;;12.95;47.95;100264.41;6212579;23;20302;-85
2023/01/30 11:12:42;;;;;;;;;;;;;;;13.02;47.35;100272.97;6212149;23;20331;-84
2023/01/30 11:15:08;;;;;;;;;;;;;;;13.02;47.45;100268.38;6212168;23;19924;-85
2023/01/30 11:17:37;;;;;;;;;;;;;;;13.05;46.60;100264.34;6212043;23;20668;-85
2023/01/30 11:20:14;;;;;;;;;;;;;;;12.93;46.44;100262.00;6212688;23;19916;-84
2023/01/30 11:22:47;;;;;;;;;;;;;;;12.83;46.38;100256.63;6211709;23;19958;-84
2023/01/30 11:25:15;;;;;;;;;;;;;;;12.76;46.50;100249.97;6212195;23;19915;-85
2023/01/30 11:27:41;;;;;;;;;;;;;;;12.74;46.35;100244.84;6211867;23;19908;-85
2023/01/30 11:30:12;;;;;;;;;;;;;;;12.71;46.13;100242.69;6212669;23;19915;-85
2023/01/30 11:32:37;;;;;;;;;;;;;;;12.74;45.93;100238.66;6211999;23;19927;-85
2023/01/30 11:35:03;;;;;;;;;;;;;;;12.74;46.06;100242.13;6211987;23;19908;-85
2023/01/30 11:37:33;;;;;;;;;;;;;;;12.74;45.89;100234.06;6212196;23;20167;-85
2023/01/30 11:39:58;;;;;;;;;;;;;;;12.74;45.84;100231.38;6185825;23;19915;-84
2023/01/30 11:42:28;;;;;;;;;;;;;;;12.80;45.16;100224.13;6212100;23;19908;-85
2023/01/30 11:44:55;;;;;;;;;;;;;;;12.79;45.06;100226.00;6212371;23;19908;-85
2023/01/30 11:47:23;;;;;;;;;;;;;;;12.91;44.98;100221.09;6212540;23;19908;-84
2023/01/30 11:49:53;;;;;;;;;;;;;;;13.06;45.35;100230.19;6212391;23;19915;-85
2023/01/30 11:52:23;;;;;;;;;;;;;;;13.06;45.03;100206.78;6211831;23;19962;-84
2023/01/30 11:54:48;;;;;;;;;;;;;;;13.05;44.89;100215.13;6211536;23;19916;-84
2023/01/30 11:57:15;;;;;;;;;;;;;;;12.92;45.10;100211.16;6211401;23;19912;-84
2023/01/30 12:00:08;;;;;;;;;;;;;;;12.81;44.98;100204.22;6212617;23;19912;-85
2023/01/30 12:02:36;;;;;;;;;;;;;;;12.68;45.57;100209.13;6206423;23;19935;-85
2023/01/30 12:05:04;;;;;;;;;;;;;;;12.69;45.24;100204.53;6184412;23;19962;-85
2023/01/30 12:07:32;;;;;;;;;;;;;;;12.61;45.30;100203.25;6211755;23;19915;-86
2023/01/30 12:09:57;;;;;;;;;;;;;;;12.60;44.79;100198.13;6212301;23;19911;-85
2023/01/30 12:12:23;;;;;;;;;;;;;;;12.44;44.99;100192.00;6210976;23;20420;-85
2023/01/30 12:14:51;;;;;;;;;;;;;;;12.42;45.04;100196.84;6211933;23;19922;-84
2023/01/30 12:17:35;;;;;;;;;;;;;;;12.43;44.90;100203.84;6212165;23;19908;-85
2023/01/30 12:20:13;;;;;;;;;;;;;;;12.38;44.65;100220.75;6212422;23;19916;-84
2023/01/30 12:22:48;;;;;;;;;;;;;;;12.23;44.98;100212.75;6211485;23;19912;-84
2023/01/30 12:25:18;;;;;;;;;;;;;;;12.17;45.22;100219.19;6211520;23;19908;-84
2023/01/30 12:27:51;;;;;;;;;;;;;;;12.12;45.74;100219.19;6185164;23;19908;-84
2023/01/30 12:30:31;;;;;;;;;;;;;;;12.09;45.54;100222.44;6212156;23;19981;-85
2023/01/30 12:33:01;;;;;;;;;;;;;;;12.03;45.81;100220.84;6212099;23;19912;-84
2023/01/30 12:35:45;;;;;;;;;;;;;;;11.96;45.87;100209.56;6211481;23;19908;-85
2023/01/30 12:38:49;;;;;;;;;;;;;;;11.96;46.00;100204.19;6212165;23;19908;-84
2023/01/30 12:41:23;;;;;;;;;;;;;;;11.97;46.10;100200.44;6090623;23;19909;-85
2023/01/30 12:44:01;;;;;;;;;;;;;;;11.90;46.50;100189.97;6089951;23;19909;-84
2023/01/30 12:46:29;;;;;;;;;;;;;;;11.98;46.38;100183.25;6163005;23;20251;-85
2023/01/30 12:49:12;;;;;;;;;;;;;;;12.09;46.51;100182.16;6211763;23;19944;-85
2023/01/30 12:51:38;;;;;;;;;;;;;;;12.12;46.12;100168.19;6211298;23;20016;-84
2023/01/30 12:54:22;;;;;;;;;;;;;;;12.05;46.21;100151.56;6211442;23;19935;-85
2023/01/30 12:56:47;;;;;;;;;;;;;;;12.00;46.46;100157.72;6210713;23;19923;-84
2023/01/30 12:59:16;;;;;;;;;;;;;;;12.00;45.97;100149.66;6211691;23;19908;-84
2023/01/30 13:02:00;;;;;;;;;;;;;;;11.98;46.19;100133.03;6211759;23;19915;-84
2023/01/30 13:04:44;;;;;;;;;;;;;;;12.12;46.23;100143.22;6209538;23;19911;-85
2023/01/30 13:07:09;;;;;;;;;;;;;;;12.22;46.03;100145.88;6211421;23;19912;-86
2023/01/30 13:09:43;;;;;;;;;;;;;;;12.19;46.07;100146.41;6210532;23;20347;-86
2023/01/30 13:12:24;;;;;;;;;;;;;;;12.16;46.29;100145.06;6211343;23;19912;-84
2023/01/30 13:14:49;;;;;;;;;;;;;;;12.14;46.54;100157.16;6211657;23;19982;-84
2023/01/30 13:17:18;;;;;;;;;;;;;;;12.05;46.50;100155.06;6210898;23;20444;-85
2023/01/30 13:19:43;;;;;;;;;;;;;;;11.97;46.48;100157.47;6212275;23;19983;-85
2023/01/30 13:22:09;;;;;;;;;;;;;;;11.95;46.60;100152.38;6212054;23;19950;-85
2023/01/30 13:24:43;;;;;;;;;;;;;;;11.79;46.85;100148.09;6212826;23;19966;-85
2023/01/30 13:27:12;;;;;;;;;;;;;;;11.70;47.08;100144.34;6187263;23;20332;-84
2023/01/30 13:29:38;;;;;;;;;;;;;;;11.65;47.57;100147.81;6212786;23;19915;-85
2023/01/30 13:32:05;;;;;;;;;;;;;;;11.69;47.68;100145.41;6213377;23;19912;-85
2023/01/30 13:34:43;;;;;;;;;;;;;;;11.76;47.83;100146.72;6212871;23;19923;-85
2023/01/30 13:37:16;;;;;;;;;;;;;;;11.77;47.38;100134.91;6187020;23;19912;-85
2023/01/30 13:39:53;;;;;;;;;;;;;;;11.70;47.36;100147.81;6212126;23;19934;-84
2023/01/30 13:42:39;;;;;;;;;;;;;;;11.66;47.73;100146.72;6212148;23;19912;-84
2023/01/30 13:45:05;;;;;;;;;;;;;;;11.55;47.77;100145.16;6150654;23;19935;-84
2023/01/30 13:47:49;;;;;;;;;;;;;;;11.49;47.82;100141.66;6211828;23;19912;-85
2023/01/30 13:50:36;;;;;;;;;;;;;;;11.44;48.25;100147.00;6212523;23;19919;-86
2023/01/30 13:53:17;;;;;;;;;;;;;;;11.44;48.14;100146.19;6212630;23;19966;-85
2023/01/30 13:55:48;;;;;;;;;;;;;;;11.52;47.95;100148.38;6209246;23;19951;-84
2023/01/30 13:58:30;;;;;;;;;;;;;;;11.50;48.28;100137.09;6211909;23;19908;-84
2023/01/30 14:00:55;;;;;;;;;;;;;;;11.51;48.11;100144.06;6212963;23;19907;-84
2023/01/30 14:03:31;;;;;;;;;;;;;;;11.54;48.42;100146.22;6212495;23;19957;-85
2023/01/30 14:05:58;;;;;;;;;;;;;;;11.61;48.16;100159.34;6212508;23;20461;-85
2023/01/30 14:08:27;;;;;;;;;;;;;;;11.56;48.09;100162.84;6211248;23;19912;-84